LTAULTAN

Guest
Details From LTAU - ERKILET
To LTAN - KONYA
Flight Number -
Tags generated
Created
Modified
Stats Distance 147 nm / 272 km
Max Altitude 16,300 ft / 4,968 m
Waypoints 3
Social Downloads 1
Likes 0
Share VATSIM

Download

Looking for another format? Having issues loading an existing format? Contact us
Advertisement - Login to hide

Notes

Basic altitude profile: - Ascent Rate: 2500ft/min - Ascent Speed: 250kts - Cruise Altitude: 35000ft - Cruise Speed: 420kts - Descent Rate: 1500ft/min - Descent Speed: 250kts Options: - Use NATs: yes - Use PACOTS: yes - Use low airways: yes - Use high airways: yes

Route

LTAU URGUP LTAN

ID Type Via Altitude Latitude Longitude Leg Dist Tot Dist Heading (true) Name
O LTAU APT - 0 ft / 0 m 38.77038˚ 35.49543˚ - 0 nm - ERKILET
URGUP FIX - 16,300 ft / 4,968 m 38.52111˚ 34.03000˚ 70 nm 70 nm 258° / 257° -
O LTAN APT - 0 ft / 0 m 37.97900˚ 32.56185˚ 76 nm 146 nm 245° / 244° KONYA

Altitude Profile

Advertisement - Login to hide

LTAU

Details ICAO LTAU (ASR)
Name ERKILET
Region Turkey
Timezone Europe/Istanbul (UTC+3.0)
Stats Elevation 3,463 ft / 1,056 m (AMSL)
Location 38.770384° 35.495427°
Runways 1
Magnetic Variation 5.653° E

METAR

LTAU 112050Z 07004KT 030V090 CAVOK M01/M02 Q1028 NOSIG

Decode

TAF

Not found

Departure Runways

ID Width Length Bearing (true) Bearing (mag) Surface Threshold Offset Overrun Length
07 145 ft / 44 m 9,822 ft / 2,994 m 76.29° 70.64° Concrete 0 ft / 0 m 500 ft / 152 m
25 145 ft / 44 m 9,822 ft / 2,994 m 256.31° 250.66° Concrete 0 ft / 0 m 500 ft / 152 m

LTAN

Details ICAO LTAN (KYA)
Name KONYA
Region Turkey
Timezone Europe/Istanbul (UTC+3.0)
Stats Elevation 3,381 ft / 1,031 m (AMSL)
Location 37.979000° 32.561847°
Runways 1
Magnetic Variation 5.344° E

METAR

LTAN 112050Z 28004KT CAVOK 03/00 Q1027 NOSIG

Decode

TAF

Not found

Destination Runways

ID Width Length Bearing (true) Bearing (mag) Surface Threshold Offset Overrun Length
01 148 ft / 45 m 11,008 ft / 3,355 m 16.74° 11.40° Asphalt 0 ft / 0 m 328 ft / 100 m
19 148 ft / 45 m 11,008 ft / 3,355 m 196.75° 191.41° Asphalt 0 ft / 0 m 328 ft / 100 m